createdAt,value
2022-08-28T00:01:25.703Z,18.25
2022-08-28T00:06:30.359Z,15.57
2022-08-28T00:11:40.018Z,17.77
2022-08-28T00:17:03.317Z,16.30
2022-08-28T00:22:11.875Z,16.63
2022-08-28T00:27:32.801Z,15.90
2022-08-28T00:32:46.233Z,15.13
2022-08-28T00:37:50.733Z,14.40
2022-08-28T00:42:57.681Z,13.27
2022-08-28T00:48:06.674Z,14.15
2022-08-28T00:53:17.958Z,13.10
2022-08-28T00:58:27.715Z,18.42
2022-08-28T01:03:36.485Z,14.85
2022-08-28T01:08:50.337Z,13.57
2022-08-28T01:14:01.789Z,13.80
2022-08-28T01:19:14.387Z,13.52
2022-08-28T01:24:20.095Z,15.25
2022-08-28T01:29:23.865Z,14.60
2022-08-28T01:34:34.727Z,12.15
2022-08-28T01:39:41.698Z,14.45
2022-08-28T01:44:45.416Z,13.93
2022-08-28T01:49:52.055Z,13.93
2022-08-28T01:54:58.049Z,13.65
2022-08-28T02:00:05.015Z,11.68
2022-08-28T02:05:18.742Z,14.10
2022-08-28T02:10:32.588Z,13.63
2022-08-28T02:15:37.465Z,12.90
2022-08-28T02:20:48.113Z,12.10
2022-08-28T02:25:53.972Z,13.32
2022-08-28T02:30:58.864Z,13.13
2022-08-28T02:36:09.479Z,13.07
2022-08-28T02:41:15.094Z,11.48
2022-08-28T02:46:56.276Z,12.75
2022-08-28T02:52:03.092Z,14.57
2022-08-28T02:57:09.143Z,11.80
2022-08-28T03:02:12.901Z,15.82
2022-08-28T03:07:22.579Z,17.20
2022-08-28T03:12:40.269Z,12.77
2022-08-28T03:18:03.052Z,11.55
2022-08-28T03:23:30.846Z,14.88
2022-08-28T03:28:40.092Z,11.82
2022-08-28T03:33:49.629Z,13.23
2022-08-28T03:38:54.586Z,14.18
2022-08-28T03:44:01.306Z,11.98
2022-08-28T03:49:10.267Z,13.25
2022-08-28T03:54:14.099Z,15.90
2022-08-28T03:59:21.444Z,14.07
2022-08-28T04:04:35.547Z,12.43
2022-08-28T04:09:39.171Z,14.82
2022-08-28T04:14:44.157Z,9.82
2022-08-28T04:19:48.051Z,9.40
2022-08-28T04:24:51.878Z,10.02
2022-08-28T04:29:57.871Z,9.95
2022-08-28T04:35:01.828Z,10.80
2022-08-28T04:40:07.823Z,11.43
2022-08-28T04:45:16.042Z,10.43
2022-08-28T04:50:21.300Z,9.77
2022-08-28T04:55:29.037Z,12.45
2022-08-28T05:00:54.699Z,11.57
2022-08-28T05:05:58.428Z,12.07
2022-08-28T05:11:12.265Z,9.35
2022-08-28T05:16:18.097Z,10.90
2022-08-28T05:21:23.052Z,9.02
2022-08-28T05:26:28.383Z,11.82
2022-08-28T05:31:41.598Z,10.45
2022-08-28T05:36:50.093Z,10.15
2022-08-28T05:41:53.422Z,11.43
2022-08-28T05:47:11.411Z,9.38
2022-08-28T05:52:15.653Z,8.93
2022-08-28T05:57:31.194Z,11.55
2022-08-28T06:02:39.001Z,9.68
2022-08-28T06:07:43.365Z,7.63
2022-08-28T06:12:47.436Z,8.30
2022-08-28T06:17:52.486Z,8.73
2022-08-28T06:22:58.393Z,9.20
2022-08-28T06:28:01.783Z,7.22
2022-08-28T06:33:12.140Z,8.35
2022-08-28T06:38:15.722Z,9.52
2022-08-28T06:43:21.810Z,7.60
2022-08-28T06:48:33.155Z,8.75
2022-08-28T06:53:40.537Z,5.63
2022-08-28T06:58:50.035Z,8.02
2022-08-28T07:03:56.964Z,7.13
2022-08-28T07:09:03.624Z,5.70
2022-08-28T07:14:10.433Z,7.10
2022-08-28T07:19:18.056Z,7.07
2022-08-28T07:24:24.364Z,7.35
2022-08-28T07:29:27.994Z,9.07
2022-08-28T07:34:42.395Z,5.38
2022-08-28T07:39:45.963Z,7.60
2022-08-28T07:44:55.191Z,6.53
2022-08-28T07:50:08.262Z,6.93
2022-08-28T07:55:14.144Z,5.28
2022-08-28T08:00:18.209Z,6.55
2022-08-28T08:05:24.743Z,6.63
2022-08-28T08:10:33.936Z,7.35
2022-08-28T08:15:38.424Z,6.10
2022-08-28T08:20:49.712Z,6.88
2022-08-28T08:26:01.218Z,5.32
2022-08-28T08:31:08.940Z,4.07
2022-08-28T08:41:23.519Z,4.70
2022-08-28T08:46:36.737Z,3.65
2022-08-28T08:51:44.760Z,6.45
2022-08-28T08:56:49.059Z,4.35
2022-08-28T09:01:58.049Z,5.20
2022-08-28T09:07:04.342Z,5.15
2022-08-28T09:12:11.474Z,7.30
2022-08-28T09:17:18.177Z,5.13
2022-08-28T09:22:25.195Z,4.53
2022-08-28T09:27:32.082Z,5.37
2022-08-28T09:32:41.487Z,6.40
2022-08-28T09:37:46.771Z,3.85
2022-08-28T09:43:22.382Z,7.05
2022-08-28T09:48:32.910Z,6.38
2022-08-28T09:53:41.164Z,3.53
2022-08-28T09:58:50.623Z,3.30
2022-08-28T10:03:59.080Z,5.18
2022-08-28T10:09:12.890Z,5.47
2022-08-28T10:14:28.772Z,3.72
2022-08-28T10:19:45.048Z,3.83
2022-08-28T10:25:00.758Z,6.05
2022-08-28T10:30:12.379Z,3.97
2022-08-28T10:35:18.932Z,9.40
2022-08-28T10:40:27.908Z,5.40
2022-08-28T10:45:34.164Z,6.28
2022-08-28T10:50:47.436Z,3.60
2022-08-28T10:56:18.009Z,4.65
2022-08-28T11:01:27.237Z,3.85
2022-08-28T11:06:36.788Z,6.32
2022-08-28T11:11:45.770Z,5.35
2022-08-28T11:16:50.595Z,5.32
2022-08-28T11:21:59.259Z,4.60
2022-08-28T11:27:18.161Z,4.63
2022-08-28T11:32:30.699Z,4.72
2022-08-28T11:37:41.073Z,5.85
2022-08-28T11:42:48.930Z,5.03
2022-08-28T11:48:05.514Z,3.50
2022-08-28T11:53:33.424Z,3.90
2022-08-28T11:58:46.030Z,5.68
2022-08-28T12:03:58.914Z,3.92
2022-08-28T12:09:05.810Z,6.75
2022-08-28T12:14:42.441Z,4.70
2022-08-28T12:19:55.684Z,4.43
2022-08-28T12:25:04.594Z,4.85
2022-08-28T12:30:12.317Z,6.70
2022-08-28T12:35:19.884Z,4.55
2022-08-28T12:40:28.206Z,3.92
2022-08-28T12:45:36.368Z,5.20
2022-08-28T12:50:44.261Z,4.07
2022-08-28T12:55:49.286Z,5.47
2022-08-28T13:00:54.312Z,3.75
2022-08-28T13:06:04.919Z,4.95
2022-08-28T13:11:12.623Z,3.17
2022-08-28T13:16:42.433Z,4.22
2022-08-28T13:21:58.781Z,4.25
2022-08-28T13:27:04.178Z,5.35
2022-08-28T13:32:16.286Z,4.78
2022-08-28T13:37:43.708Z,3.10
2022-08-28T13:42:46.986Z,4.65
2022-08-28T13:47:56.155Z,4.65
2022-08-28T13:53:01.332Z,4.20
2022-08-28T13:58:13.403Z,3.88
2022-08-28T14:03:34.768Z,6.03
2022-08-28T14:08:39.901Z,4.32
2022-08-28T14:13:47.151Z,3.97
2022-08-28T14:19:05.242Z,4.20
2022-08-28T14:24:11.374Z,3.13
2022-08-28T14:29:15.564Z,2.95
2022-08-28T14:34:23.461Z,9.13
2022-08-28T14:39:29.440Z,5.30
2022-08-28T14:44:32.764Z,6.20
2022-08-28T14:49:36.713Z,5.20
2022-08-28T14:54:43.571Z,3.70
2022-08-28T14:59:54.665Z,6.10
2022-08-28T15:05:07.719Z,3.75
2022-08-28T15:10:14.159Z,4.32
2022-08-28T15:15:22.846Z,3.60
2022-08-28T15:20:26.668Z,3.55
2022-08-28T15:25:36.156Z,6.40
2022-08-28T15:30:46.215Z,3.97
2022-08-28T15:35:49.959Z,4.53
2022-08-28T15:41:12.491Z,4.32
2022-08-28T15:46:24.853Z,4.80
2022-08-28T15:51:35.359Z,6.60
2022-08-28T15:56:50.710Z,5.38
2022-08-28T16:07:01.758Z,4.35
2022-08-28T16:12:12.893Z,7.15
2022-08-28T16:17:17.695Z,4.95
2022-08-28T16:22:21.770Z,5.28
2022-08-28T16:27:29.089Z,4.90
2022-08-28T16:32:33.778Z,5.85
2022-08-28T16:37:40.786Z,3.97
2022-08-28T16:47:55.960Z,6.55
2022-08-28T16:53:04.822Z,5.45
2022-08-28T16:58:16.717Z,8.38
2022-08-28T17:03:24.392Z,6.00
2022-08-28T17:08:30.257Z,5.78
2022-08-28T17:13:35.655Z,4.25
2022-08-28T17:18:39.577Z,4.68
2022-08-28T17:29:32.705Z,9.15
2022-08-28T17:34:39.678Z,4.32
2022-08-28T17:39:44.290Z,5.75
2022-08-28T17:44:56.410Z,6.57
2022-08-28T17:50:02.106Z,5.45
2022-08-28T17:55:07.976Z,4.82
2022-08-28T18:00:19.487Z,6.28
2022-08-28T18:05:27.644Z,5.55
2022-08-28T18:15:56.645Z,6.47
2022-08-28T18:21:01.900Z,5.32
2022-08-28T18:27:04.021Z,4.32
2022-08-28T18:32:19.704Z,3.95
2022-08-28T19:53:04.143Z,7.40
2022-08-28T19:58:21.470Z,4.83
2022-08-28T20:03:44.070Z,4.05
2022-08-28T20:08:53.725Z,3.17
2022-08-28T20:14:08.310Z,3.83
2022-08-28T20:19:24.074Z,3.67
2022-08-28T20:24:57.587Z,6.90
2022-08-28T20:30:10.521Z,6.07
2022-08-28T20:35:18.366Z,3.35
2022-08-28T20:40:33.291Z,8.85
2022-08-28T20:45:50.833Z,4.45
2022-08-28T20:51:00.317Z,10.32
2022-08-28T20:56:17.177Z,4.38
2022-08-28T21:01:26.013Z,4.63
2022-08-28T21:06:34.252Z,4.32
2022-08-28T21:11:55.271Z,5.57
2022-08-28T21:17:10.668Z,3.90
2022-08-28T21:22:19.141Z,4.22
2022-08-28T21:27:37.851Z,3.53
2022-08-28T21:32:56.124Z,5.22
2022-08-28T21:38:03.709Z,3.33
2022-08-28T21:43:27.005Z,4.55
2022-08-28T21:48:45.882Z,4.20
2022-08-28T21:54:02.368Z,3.50
2022-08-28T21:59:16.278Z,4.65
2022-08-28T22:04:31.336Z,5.70
2022-08-28T22:09:35.747Z,4.28
2022-08-28T22:14:42.434Z,4.68
2022-08-28T22:19:51.862Z,7.47
2022-08-28T22:25:02.712Z,5.15
2022-08-28T22:30:14.834Z,4.75
2022-08-28T22:35:19.882Z,6.13
2022-08-28T22:40:34.554Z,4.65
2022-08-28T22:45:44.610Z,5.05
2022-08-28T22:50:49.854Z,5.10
2022-08-28T22:55:57.044Z,3.75
2022-08-28T23:06:43.043Z,5.88
2022-08-28T23:11:49.621Z,5.38
2022-08-28T23:17:05.537Z,4.50
2022-08-28T23:22:39.185Z,6.38
2022-08-28T23:27:49.270Z,5.57
2022-08-28T23:33:00.865Z,3.05
2022-08-28T23:38:12.732Z,4.78
2022-08-28T23:43:16.992Z,4.18
2022-08-28T23:48:27.205Z,3.15
2022-08-28T23:53:42.715Z,3.30
2022-08-28T23:58:51.102Z,3.80
